createdAt,value
2018-11-27T00:00:32.242Z,72.45
2018-11-27T00:03:02.285Z,71.95
2018-11-27T00:05:32.063Z,71.68
2018-11-27T00:08:01.064Z,71.41
2018-11-27T00:10:31.993Z,71.66
2018-11-27T00:13:00.960Z,71.70
2018-11-27T00:15:30.047Z,71.71
2018-11-27T00:17:59.054Z,71.73
2018-11-27T00:20:28.005Z,72.56
2018-11-27T00:22:57.000Z,72.67
2018-11-27T00:25:26.134Z,72.21
2018-11-27T00:27:55.025Z,71.42
2018-11-27T00:30:23.884Z,72.55
2018-11-27T00:32:52.811Z,73.14
2018-11-27T00:35:21.799Z,74.06
2018-11-27T00:37:51.001Z,75.16
2018-11-27T00:40:22.309Z,74.01
2018-11-27T00:42:51.535Z,74.24
2018-11-27T00:45:21.435Z,74.04
2018-11-27T00:47:51.346Z,74.70
2018-11-27T00:50:21.700Z,74.47
2018-11-27T00:52:50.623Z,73.78
2018-11-27T00:55:20.417Z,73.62
2018-11-27T00:57:50.590Z,73.79
2018-11-27T01:00:21.202Z,73.27
2018-11-27T01:02:50.168Z,72.83
2018-11-27T01:05:20.139Z,71.07
2018-11-27T01:07:49.073Z,70.48
2018-11-27T01:10:23.124Z,71.27
2018-11-27T01:12:52.289Z,72.43
2018-11-27T01:15:21.352Z,72.37
2018-11-27T01:17:57.379Z,71.13
2018-11-27T01:20:27.512Z,70.32
2018-11-27T01:22:56.422Z,69.33
2018-11-27T01:25:25.410Z,70.31
2018-11-27T01:27:54.387Z,70.27
2018-11-27T01:30:23.834Z,70.41
2018-11-27T01:32:52.906Z,71.40
2018-11-27T01:35:24.750Z,71.82
2018-11-27T01:37:54.743Z,72.21
2018-11-27T01:40:26.523Z,73.14
2018-11-27T01:42:56.211Z,73.68
2018-11-27T01:45:25.567Z,74.33
2018-11-27T01:47:55.187Z,74.12
2018-11-27T01:50:24.056Z,74.47
2018-11-27T01:52:52.903Z,73.93
2018-11-27T01:55:22.861Z,74.31
2018-11-27T01:57:51.879Z,74.22
2018-11-27T02:00:24.753Z,74.84
2018-11-27T02:02:54.327Z,75.06
2018-11-27T02:05:24.045Z,74.05
2018-11-27T02:07:53.075Z,73.75
2018-11-27T02:10:22.006Z,73.75
2018-11-27T02:12:52.014Z,74.24
2018-11-27T02:15:21.953Z,73.52
2018-11-27T02:17:50.817Z,72.63
2018-11-27T02:20:20.075Z,72.12
2018-11-27T02:22:48.994Z,71.14
2018-11-27T02:25:21.854Z,70.16
2018-11-27T02:27:50.789Z,72.04
2018-11-27T02:30:21.044Z,72.15
2018-11-27T02:32:49.964Z,71.81
2018-11-27T02:35:20.625Z,71.95
2018-11-27T02:37:51.739Z,71.28
2018-11-27T02:40:20.634Z,71.61
2018-11-27T02:42:49.672Z,71.46
2018-11-27T02:45:19.733Z,71.94
2018-11-27T02:47:49.612Z,72.40
2018-11-27T02:50:19.705Z,72.35
2018-11-27T02:52:48.599Z,71.92
2018-11-27T02:55:19.558Z,72.24
2018-11-27T02:57:48.576Z,72.43
2018-11-27T03:00:18.518Z,72.00
2018-11-27T03:02:47.575Z,71.65
2018-11-27T03:05:30.459Z,72.02
2018-11-27T03:07:59.353Z,72.82
2018-11-27T03:10:28.289Z,72.64
2018-11-27T03:12:57.238Z,72.76
2018-11-27T03:15:26.162Z,72.61
2018-11-27T03:17:55.072Z,72.85
2018-11-27T03:20:23.926Z,72.63
2018-11-27T03:22:52.811Z,72.59
2018-11-27T03:25:22.840Z,72.28
2018-11-27T03:27:52.812Z,72.33
2018-11-27T03:30:22.643Z,72.55
2018-11-27T03:32:51.772Z,72.44
2018-11-27T03:35:21.741Z,73.04
2018-11-27T03:37:50.974Z,72.39
2018-11-27T03:40:25.907Z,72.44
2018-11-27T03:42:54.865Z,72.62
2018-11-27T03:45:24.446Z,73.26
2018-11-27T03:47:53.422Z,73.83
2018-11-27T03:50:24.313Z,73.37
2018-11-27T03:52:53.170Z,73.36
2018-11-27T03:55:22.068Z,73.46
2018-11-27T03:57:51.054Z,73.44
2018-11-27T04:00:23.064Z,73.71
2018-11-27T04:02:55.012Z,74.11
2018-11-27T04:05:24.964Z,74.22
2018-11-27T04:07:54.092Z,73.83
2018-11-27T04:10:23.279Z,74.02
2018-11-27T04:12:52.473Z,73.85
2018-11-27T04:15:21.430Z,73.98
2018-11-27T04:17:50.331Z,73.91
2018-11-27T04:20:19.477Z,74.01
2018-11-27T04:22:48.365Z,73.61
2018-11-27T04:25:17.935Z,73.75
2018-11-27T04:27:48.036Z,73.70
2018-11-27T04:30:19.942Z,73.77
2018-11-27T04:32:49.032Z,73.86
2018-11-27T04:35:19.995Z,73.84
2018-11-27T04:37:49.125Z,73.93
2018-11-27T04:40:19.433Z,73.77
2018-11-27T04:42:48.416Z,73.31
2018-11-27T04:45:20.374Z,73.24
2018-11-27T04:47:49.289Z,73.25
2018-11-27T04:50:18.939Z,73.08
2018-11-27T04:52:47.941Z,73.47
2018-11-27T04:55:18.131Z,73.24
2018-11-27T04:57:48.849Z,74.08
2018-11-27T05:00:19.933Z,73.68
2018-11-27T05:02:48.913Z,73.64
2018-11-27T05:05:18.078Z,74.07
2018-11-27T05:07:46.998Z,74.38
2018-11-27T05:10:18.604Z,74.00
2018-11-27T05:12:47.536Z,73.73
2018-11-27T05:15:21.183Z,73.71
2018-11-27T05:17:52.318Z,74.00
2018-11-27T05:20:21.257Z,74.35
2018-11-27T05:22:50.119Z,73.77
2018-11-27T05:25:19.711Z,73.99
2018-11-27T05:27:49.639Z,75.01
2018-11-27T05:30:23.321Z,75.81
2018-11-27T05:32:52.189Z,75.61
2018-11-27T05:35:23.184Z,75.14
2018-11-27T05:37:52.239Z,75.21
2018-11-27T05:40:24.059Z,74.88
2018-11-27T05:42:56.223Z,74.58
2018-11-27T05:45:25.731Z,74.45
2018-11-27T05:47:54.629Z,74.12
2018-11-27T05:50:23.483Z,74.10
2018-11-27T05:52:52.372Z,73.90
2018-11-27T05:55:21.270Z,75.46
2018-11-27T05:57:51.611Z,75.12
2018-11-27T06:00:21.944Z,74.60
2018-11-27T06:02:52.309Z,74.66
2018-11-27T06:05:22.371Z,74.85
2018-11-27T06:07:51.332Z,74.36
2018-11-27T06:10:21.368Z,73.47
2018-11-27T06:12:50.255Z,73.26
2018-11-27T06:15:21.363Z,73.20
2018-11-27T06:17:51.780Z,73.91
2018-11-27T06:20:21.948Z,73.63
2018-11-27T06:22:57.535Z,73.50
2018-11-27T06:25:28.371Z,73.10
2018-11-27T06:28:01.233Z,73.38
2018-11-27T06:30:30.914Z,73.17
2018-11-27T06:32:59.830Z,72.93
2018-11-27T06:35:31.327Z,72.58
2018-11-27T06:38:00.207Z,73.79
2018-11-27T06:40:30.430Z,73.47
2018-11-27T06:42:59.399Z,72.65
2018-11-27T06:45:28.656Z,72.95
2018-11-27T06:47:57.590Z,73.08
2018-11-27T06:50:26.482Z,72.85
2018-11-27T06:52:55.332Z,72.45
2018-11-27T06:55:24.951Z,72.26
2018-11-27T06:57:53.901Z,72.52
2018-11-27T07:00:25.963Z,72.32
2018-11-27T07:02:55.543Z,72.60
2018-11-27T07:05:24.545Z,71.84
2018-11-27T07:07:53.468Z,72.11
2018-11-27T07:10:24.530Z,71.51
2018-11-27T07:12:54.966Z,71.50
2018-11-27T07:15:24.793Z,72.16
2018-11-27T07:17:53.689Z,72.25
2018-11-27T07:20:22.607Z,72.46
2018-11-27T07:22:51.543Z,72.80
2018-11-27T07:25:20.430Z,71.91
2018-11-27T07:27:50.525Z,72.55
2018-11-27T07:30:21.637Z,72.75
2018-11-27T07:32:50.656Z,72.22
2018-11-27T07:35:19.936Z,72.42
2018-11-27T07:37:49.115Z,72.04
2018-11-27T07:40:27.052Z,72.04
2018-11-27T07:42:58.031Z,71.94
2018-11-27T07:45:26.981Z,72.10
2018-11-27T07:47:55.907Z,71.73
2018-11-27T07:50:24.880Z,71.73
2018-11-27T07:52:53.847Z,72.50
2018-11-27T07:55:23.756Z,72.15
2018-11-27T07:57:53.689Z,72.02
2018-11-27T08:00:25.398Z,72.23
2018-11-27T08:02:55.598Z,72.46
2018-11-27T08:05:29.893Z,72.45
2018-11-27T08:07:59.192Z,72.33
2018-11-27T08:10:29.364Z,72.84
2018-11-27T08:12:58.459Z,73.11
2018-11-27T08:15:28.761Z,74.00
2018-11-27T08:17:57.960Z,73.80
2018-11-27T08:20:28.188Z,73.56
2018-11-27T08:22:57.234Z,73.75
2018-11-27T08:25:26.268Z,74.02
2018-11-27T08:27:55.218Z,73.77
2018-11-27T08:30:24.639Z,73.61
2018-11-27T08:32:54.286Z,73.46
2018-11-27T08:35:25.410Z,73.08
2018-11-27T08:37:55.510Z,73.85
2018-11-27T08:40:25.539Z,73.74
2018-11-27T08:42:54.568Z,74.82
2018-11-27T08:45:25.079Z,74.83
2018-11-27T09:19:30.460Z,73.87
2018-11-27T09:21:59.365Z,74.31
2018-11-27T09:24:28.340Z,73.89
2018-11-27T09:26:57.267Z,73.96
2018-11-27T09:29:26.155Z,73.78
2018-11-27T09:31:55.071Z,73.69
2018-11-27T09:34:24.008Z,73.98
2018-11-27T09:36:52.945Z,73.55
2018-11-27T09:39:21.824Z,74.06
2018-11-27T09:41:50.768Z,73.66
2018-11-27T09:44:19.745Z,73.91
2018-11-27T09:46:48.719Z,73.37
2018-11-27T09:49:17.585Z,73.28
2018-11-27T09:51:46.641Z,72.88
2018-11-27T09:54:15.509Z,73.12
2018-11-27T09:56:44.364Z,74.08
2018-11-27T09:59:13.228Z,73.99
2018-11-27T10:01:42.222Z,74.48
2018-11-27T10:04:11.163Z,73.52
2018-11-27T10:06:40.095Z,73.90
2018-11-27T10:09:09.739Z,73.55
2018-11-27T10:11:38.607Z,73.60
2018-11-27T10:14:07.837Z,74.36
2018-11-27T10:16:36.738Z,73.66
2018-11-27T10:19:05.649Z,73.56
2018-11-27T10:21:34.541Z,75.11
2018-11-27T10:24:03.407Z,76.95
2018-11-27T10:26:32.298Z,76.52
2018-11-27T10:29:01.324Z,76.18
2018-11-27T10:31:30.193Z,76.90
2018-11-27T10:33:59.041Z,77.68
2018-11-27T10:36:27.900Z,77.08
2018-11-27T10:39:01.013Z,78.92
2018-11-27T10:41:25.641Z,78.46
2018-11-27T10:43:54.605Z,77.58
2018-11-27T10:46:23.498Z,76.89
2018-11-27T10:48:52.455Z,75.96
2018-11-27T10:51:21.587Z,75.51
2018-11-27T10:53:50.528Z,75.28
2018-11-27T10:56:19.407Z,75.52
2018-11-27T10:58:48.329Z,73.84
2018-11-27T11:01:22.320Z,74.08
2018-11-27T11:03:51.225Z,73.37
2018-11-27T11:06:20.279Z,73.50
2018-11-27T11:08:49.179Z,75.09
2018-11-27T11:11:18.055Z,74.73
2018-11-27T11:13:46.981Z,74.26
2018-11-27T11:16:15.879Z,74.71
2018-11-27T11:18:44.787Z,74.67
2018-11-27T11:21:13.808Z,74.14
2018-11-27T11:23:42.756Z,73.75
2018-11-27T11:26:11.705Z,73.41
2018-11-27T11:28:40.672Z,72.74
2018-11-27T11:31:09.682Z,72.89
2018-11-27T11:33:38.684Z,72.99
2018-11-27T11:36:08.046Z,72.64
2018-11-27T11:38:36.996Z,72.21
2018-11-27T11:41:06.490Z,71.83
2018-11-27T11:43:35.872Z,72.84
2018-11-27T11:46:04.904Z,72.89
2018-11-27T11:48:34.112Z,72.41
2018-11-27T11:51:03.207Z,72.79
2018-11-27T11:53:32.184Z,72.84
2018-11-27T11:56:01.189Z,72.64
2018-11-27T11:58:30.143Z,72.73
2018-11-27T12:00:59.099Z,73.07
2018-11-27T12:03:27.998Z,73.22
2018-11-27T12:05:57.295Z,73.13
2018-11-27T12:08:26.273Z,72.70
2018-11-27T12:10:55.213Z,73.26
2018-11-27T12:13:24.161Z,72.49
2018-11-27T12:15:54.754Z,72.83
2018-11-27T12:18:23.765Z,72.72
2018-11-27T12:20:52.699Z,73.77
2018-11-27T12:23:21.781Z,73.31
2018-11-27T12:25:50.796Z,73.24
2018-11-27T12:28:20.067Z,73.68
2018-11-27T12:30:49.002Z,72.96
2018-11-27T12:33:17.955Z,72.77
2018-11-27T12:35:46.867Z,73.62
2018-11-27T12:38:15.757Z,74.34
2018-11-27T12:40:44.610Z,74.22
2018-11-27T12:43:13.459Z,74.45
2018-11-27T12:45:42.350Z,74.58
2018-11-27T12:48:11.604Z,74.54
2018-11-27T12:50:42.180Z,74.56
2018-11-27T12:53:16.714Z,75.26
2018-11-27T12:55:44.599Z,74.87
2018-11-27T12:58:13.501Z,74.85
2018-11-27T13:00:42.388Z,75.15
2018-11-27T13:03:11.300Z,75.41
2018-11-27T13:05:42.375Z,75.27
2018-11-27T13:08:16.482Z,75.12
2018-11-27T13:10:45.437Z,78.34
2018-11-27T13:13:14.569Z,77.90
2018-11-27T13:15:44.211Z,77.58
2018-11-27T13:18:13.161Z,77.06
2018-11-27T13:20:42.591Z,76.24
2018-11-27T13:23:11.555Z,76.28
2018-11-27T13:25:40.631Z,76.46
2018-11-27T13:28:10.880Z,76.49
2018-11-27T13:30:57.489Z,75.95
2018-11-27T13:33:28.938Z,75.76
2018-11-27T13:35:58.720Z,75.86
2018-11-27T13:38:27.577Z,75.50
2018-11-27T13:40:56.581Z,75.14
2018-11-27T13:43:28.751Z,75.05
2018-11-27T13:45:59.032Z,74.92
2018-11-27T13:48:27.991Z,75.00
2018-11-27T13:50:56.926Z,75.22
2018-11-27T13:53:25.792Z,75.32
2018-11-27T13:55:54.883Z,75.07
2018-11-27T13:58:23.734Z,75.56
2018-11-27T14:00:52.657Z,75.20
2018-11-27T14:03:21.558Z,74.86
2018-11-27T14:05:50.465Z,75.13
2018-11-27T14:08:19.407Z,75.14
2018-11-27T14:10:48.235Z,75.45
2018-11-27T14:13:17.112Z,75.60
2018-11-27T14:15:45.991Z,75.86
2018-11-27T14:18:14.856Z,76.51
2018-11-27T14:20:43.707Z,76.69
2018-11-27T14:23:12.635Z,76.74
2018-11-27T14:25:41.599Z,76.48
2018-11-27T14:28:10.786Z,76.82
2018-11-27T14:30:39.860Z,77.38
2018-11-27T14:33:08.905Z,77.44
2018-11-27T14:35:37.923Z,76.68
2018-11-27T14:38:07.377Z,76.42
2018-11-27T14:40:36.363Z,75.24
2018-11-27T14:43:05.408Z,75.64
2018-11-27T14:45:34.381Z,75.09
2018-11-27T14:48:03.235Z,74.83
2018-11-27T14:50:32.195Z,74.90
2018-11-27T14:53:01.073Z,74.72
2018-11-27T14:55:31.320Z,74.54
2018-11-27T14:58:00.237Z,75.18
2018-11-27T15:00:29.316Z,74.36
2018-11-27T15:02:58.207Z,74.03
2018-11-27T15:05:36.947Z,73.80
2018-11-27T15:08:08.230Z,74.12
2018-11-27T15:10:37.133Z,73.61
2018-11-27T15:13:06.670Z,74.40
2018-11-27T15:15:35.532Z,73.75
2018-11-27T15:18:04.479Z,74.20
2018-11-27T15:20:33.361Z,73.96
2018-11-27T15:23:02.265Z,74.06
2018-11-27T15:25:31.228Z,74.17
2018-11-27T15:28:00.097Z,73.87
2018-11-27T15:30:31.647Z,74.26
2018-11-27T15:33:01.201Z,73.43
2018-11-27T15:35:30.115Z,74.38
2018-11-27T15:37:58.981Z,73.79
2018-11-27T15:40:29.138Z,73.48
2018-11-27T15:42:58.207Z,73.47
2018-11-27T15:45:28.203Z,73.53
2018-11-27T15:47:57.202Z,73.71
2018-11-27T15:50:26.243Z,73.41
2018-11-27T15:52:55.161Z,73.58
2018-11-27T15:55:27.207Z,73.95
2018-11-27T15:57:57.853Z,73.79
2018-11-27T16:00:26.764Z,74.14
2018-11-27T16:02:55.665Z,74.13
2018-11-27T16:05:24.629Z,74.57
2018-11-27T16:07:53.504Z,74.30
2018-11-27T16:10:22.368Z,74.81
2018-11-27T16:12:51.258Z,75.11
2018-11-27T16:15:20.934Z,75.14
2018-11-27T16:17:50.781Z,74.97
2018-11-27T16:20:21.266Z,75.01
2018-11-27T16:22:51.327Z,75.40
2018-11-27T16:25:21.412Z,75.59
2018-11-27T16:27:50.376Z,75.99
2018-11-27T16:30:23.210Z,75.25
2018-11-27T16:32:52.388Z,76.14
2018-11-27T16:35:21.322Z,75.88
2018-11-27T16:37:52.204Z,75.03
2018-11-27T16:40:22.574Z,75.10
2018-11-27T16:42:51.692Z,75.03
2018-11-27T16:45:22.908Z,74.59
2018-11-27T16:47:52.696Z,74.76
2018-11-27T16:50:21.747Z,74.80
2018-11-27T16:52:50.935Z,74.06
2018-11-27T16:55:22.063Z,74.40
2018-11-27T16:57:51.672Z,74.46
2018-11-27T17:00:22.976Z,73.92
2018-11-27T17:02:55.311Z,74.30
2018-11-27T17:05:24.235Z,73.66
2018-11-27T17:07:53.210Z,74.03
2018-11-27T17:10:22.755Z,73.95
2018-11-27T17:12:52.869Z,73.92
2018-11-27T17:15:22.982Z,73.83
2018-11-27T17:17:52.171Z,73.37
2018-11-27T17:20:28.335Z,73.69
2018-11-27T17:22:58.449Z,73.75
2018-11-27T17:25:27.386Z,73.58
2018-11-27T17:27:57.626Z,73.66
2018-11-27T17:30:42.008Z,74.08
2018-11-27T17:33:16.228Z,73.44
2018-11-27T17:35:45.884Z,74.17
2018-11-27T17:38:15.100Z,73.43
2018-11-27T17:40:44.306Z,73.69
2018-11-27T17:43:13.391Z,73.39
2018-11-27T17:45:43.229Z,73.33
2018-11-27T17:48:12.336Z,73.31
2018-11-27T17:50:41.446Z,73.60
2018-11-27T17:53:10.368Z,74.65
2018-11-27T17:55:39.449Z,74.03
2018-11-27T17:58:08.490Z,73.96
2018-11-27T18:00:37.650Z,74.00
2018-11-27T18:07:46.543Z,74.08
2018-11-27T18:10:15.468Z,74.19
2018-11-27T18:12:44.348Z,74.21
2018-11-27T18:15:17.320Z,74.88
2018-11-27T18:17:46.449Z,75.01
2018-11-27T18:20:15.460Z,75.03
2018-11-27T18:22:50.686Z,74.83
2018-11-27T18:25:20.302Z,75.40
2018-11-27T18:27:50.008Z,75.36
2018-11-27T18:30:25.489Z,75.27
2018-11-27T18:32:54.391Z,75.45
2018-11-27T18:35:24.279Z,75.34
2018-11-27T18:37:53.443Z,75.45
2018-11-27T18:40:22.677Z,75.77
2018-11-27T18:42:52.377Z,75.42
2018-11-27T18:45:25.621Z,76.05
2018-11-27T18:47:54.509Z,75.68
2018-11-27T18:50:24.640Z,76.19
2018-11-27T18:52:53.523Z,76.02
2018-11-27T18:55:22.424Z,76.18
2018-11-27T18:57:51.525Z,76.29
2018-11-27T19:00:21.827Z,76.05
2018-11-27T19:02:50.994Z,76.75
2018-11-27T19:05:19.882Z,75.93
2018-11-27T19:07:48.837Z,75.84
2018-11-27T19:10:33.221Z,75.51
2018-11-27T19:13:02.451Z,76.21
2018-11-27T19:15:34.637Z,76.37
2018-11-27T19:18:06.320Z,76.05
2018-11-27T19:20:35.161Z,76.54
2018-11-27T19:23:04.562Z,76.28
2018-11-27T19:25:33.878Z,76.41
2018-11-27T19:28:04.175Z,75.66
2018-11-27T19:30:33.496Z,75.11
2018-11-27T19:33:04.812Z,74.90
2018-11-27T19:35:34.219Z,74.13
2018-11-27T19:38:03.519Z,74.04
2018-11-27T19:40:32.866Z,73.29
2018-11-27T19:43:01.718Z,73.06
2018-11-27T19:45:30.671Z,72.37
2018-11-27T19:48:00.275Z,71.54
2018-11-27T19:50:29.171Z,71.49
2018-11-27T19:53:11.768Z,71.67
2018-11-27T19:55:35.080Z,71.81
2018-11-27T19:58:04.014Z,71.76
2018-11-27T20:00:32.860Z,71.32
2018-11-27T20:03:01.722Z,70.79
2018-11-27T20:05:30.942Z,70.52
2018-11-27T20:07:59.862Z,70.69
2018-11-27T20:10:28.752Z,71.13
2018-11-27T20:12:57.608Z,71.06
2018-11-27T20:15:29.265Z,71.80
2018-11-27T20:17:58.581Z,71.56
2018-11-27T20:20:29.732Z,71.29
2018-11-27T20:22:58.874Z,71.40
2018-11-27T20:25:27.816Z,71.40
2018-11-27T20:27:56.777Z,70.99
2018-11-27T20:30:27.230Z,70.80
2018-11-27T20:33:00.265Z,71.17
2018-11-27T20:35:29.925Z,70.76
2018-11-27T20:37:59.727Z,70.90
2018-11-27T20:40:28.959Z,70.62
2018-11-27T20:42:57.991Z,69.95
2018-11-27T20:45:27.859Z,70.95
2018-11-27T20:48:00.679Z,70.99
2018-11-27T20:50:29.757Z,70.98
2018-11-27T20:52:58.621Z,70.99
2018-11-27T20:55:28.046Z,70.46
2018-11-27T20:57:58.214Z,69.64
2018-11-27T21:00:35.445Z,69.28
2018-11-27T21:03:04.892Z,69.96
2018-11-27T21:05:34.112Z,70.23
2018-11-27T21:08:03.352Z,70.02
2018-11-27T21:10:32.610Z,70.37
2018-11-27T21:13:02.258Z,71.24
2018-11-27T21:15:31.829Z,71.20
2018-11-27T21:18:01.009Z,71.30
2018-11-27T21:20:30.377Z,71.18
2018-11-27T21:23:00.427Z,71.27
2018-11-27T21:25:29.344Z,71.29
2018-11-27T21:28:13.387Z,72.03
2018-11-27T21:30:42.531Z,72.02
2018-11-27T21:33:11.504Z,72.00
2018-11-27T21:35:40.609Z,71.69
2018-11-27T21:38:09.695Z,72.11
2018-11-27T21:40:38.785Z,72.55
2018-11-27T21:43:09.137Z,72.08
2018-11-27T21:45:38.572Z,72.43
2018-11-27T21:48:08.439Z,72.73
2018-11-27T21:50:41.233Z,72.93
2018-11-27T21:53:10.374Z,72.64
2018-11-27T21:55:40.496Z,72.94
2018-11-27T21:58:10.684Z,73.01
2018-11-27T22:00:41.142Z,72.85
2018-11-27T22:03:11.061Z,74.92
2018-11-27T22:05:40.088Z,74.12
2018-11-27T22:08:09.379Z,74.43
2018-11-27T22:10:39.588Z,74.09
2018-11-27T22:13:10.368Z,73.84
2018-11-27T22:15:41.338Z,74.17
2018-11-27T22:18:11.169Z,73.87
2018-11-27T22:20:40.270Z,74.08
2018-11-27T22:23:10.070Z,74.40
2018-11-27T22:25:39.083Z,74.05
2018-11-27T22:28:09.043Z,73.75
2018-11-27T22:30:38.092Z,74.06
2018-11-27T22:33:08.298Z,73.75
2018-11-27T22:35:37.391Z,73.86
2018-11-27T22:38:07.492Z,73.38
2018-11-27T22:40:36.375Z,72.66
2018-11-27T22:43:05.912Z,72.31
2018-11-27T22:45:36.557Z,71.94
2018-11-27T22:48:06.816Z,71.90
2018-11-27T22:50:35.754Z,72.87
2018-11-27T22:53:04.728Z,73.22
2018-11-27T22:55:33.612Z,72.18
2018-11-27T22:58:02.507Z,71.46
2018-11-27T23:00:36.594Z,71.85
2018-11-27T23:03:05.541Z,72.13
2018-11-27T23:05:34.438Z,72.12
2018-11-27T23:08:03.397Z,71.84
2018-11-27T23:10:33.995Z,71.51
2018-11-27T23:13:02.988Z,71.40
2018-11-27T23:15:31.903Z,71.67
2018-11-27T23:18:00.806Z,71.09
2018-11-27T23:20:29.699Z,70.90
2018-11-27T23:23:05.488Z,71.38
2018-11-27T23:25:34.419Z,71.30
2018-11-27T23:28:03.413Z,71.65
2018-11-27T23:30:32.328Z,71.53
2018-11-27T23:33:01.404Z,71.12
2018-11-27T23:35:30.383Z,71.17
2018-11-27T23:37:59.322Z,71.62
2018-11-27T23:40:28.302Z,71.82
2018-11-27T23:42:57.184Z,72.18
2018-11-27T23:45:26.040Z,72.58
2018-11-27T23:47:54.912Z,72.78
2018-11-27T23:50:23.923Z,73.23
2018-11-27T23:52:52.786Z,73.13
2018-11-27T23:55:21.671Z,73.87
2018-11-27T23:57:51.141Z,73.47
